Latest Weather Observations for Coen Airport

IDQ60801

Issued at 9:05 pm EST Sunday 23 November 2014 (issued every 30 minutes, with the page automatically refreshed every 10 minutes)

About weather observations | Map of weather stations | Latest weather observations for QLD | Other Formats
Station Details ID: 027073 Name: COEN AIRPORT Lat: -13.76 Lon: 143.12 Height: 159.3 m
Data from the previous 72 hours. | See also: Recent months at Coen Airport
Date/Time
EST
Temp
°C
App
Temp
°C
Dew
Point
Rel
Hum
%
Delta-T
°C
Wind Press
QNH
hPa
Press
MSL
hPa
Rain
since 9 am
mm
Dir
 
Spd
km/h
Gust
km/h
Spd
kts
Gust
kts
23/09:00pm 25.6 26.0 19.9 70 3.7 NNE 17 28 9 15 1012.1 1011.1 0.0
23/08:30pm 25.7 26.2 20.0 71 3.7 NE 17 24 9 13 1012.1 - 0.0
23/08:00pm 25.7 26.4 19.6 69 4.0 NE 15 22 8 12 1011.8 - 0.0
23/07:30pm 26.1 25.8 19.2 65 4.5 NE 19 32 10 17 1011.5 - 0.0
23/07:00pm 26.7 26.5 18.6 61 5.2 NE 17 28 9 15 1011.1 - 0.0
23/06:30pm 27.9 26.8 17.4 52 6.6 NE 19 30 10 16 1010.6 - 0.0
23/06:00pm 29.2 26.8 16.4 46 8.0 ENE 24 33 13 18 1010.3 1009.4 0.0
23/05:30pm 30.7 27.4 13.9 36 10.2 NE 24 35 13 19 1010.1 - 0.0
23/05:00pm 32.0 28.9 14.6 34 10.7 NE 24 37 13 20 1009.8 - 0.0
23/04:30pm 32.9 31.0 15.8 35 10.8 ENE 20 30 11 16 1009.6 - 0.0
23/04:00pm 34.1 31.8 14.1 30 12.3 E 19 32 10 17 1009.6 - 0.0
23/03:30pm 34.2 31.7 14.1 29 12.4 E 20 28 11 15 1009.8 - 0.0
23/03:00pm 33.3 30.7 14.8 32 11.5 NE 22 37 12 20 1009.9 1009.0 0.0
23/02:30pm 33.1 30.9 16.0 35 10.8 NE 22 35 12 19 1010.1 - 0.0
23/02:00pm 33.8 33.2 16.6 35 11.0 ENE 15 26 8 14 1010.5 - 0.0
23/01:30pm 34.0 32.7 16.8 35 11.0 ENE 19 32 10 17 1011.0 - 0.0
23/01:00pm 34.5 34.2 17.3 36 11.1 ENE 15 24 8 13 1011.5 - 0.0
23/12:30pm 34.1 33.2 17.8 38 10.6 NE 19 28 10 15 1011.9 - 0.0
23/12:00pm 33.4 32.2 17.1 37 10.5 E 19 35 10 19 1012.4 1011.4 0.0
23/11:30am 34.2 34.1 17.8 37 10.7 NNE 15 30 8 16 1012.9 - 0.0
23/11:00am 33.1 32.2 17.7 40 10.0 ENE 19 33 10 18 1013.2 - 0.0
23/10:30am 32.1 30.8 17.2 41 9.5 E 20 35 11 19 1013.6 - 0.0
23/10:00am 31.6 31.3 18.2 44 8.7 NE 17 28 9 15 1014.1 - 0.0
23/09:30am 30.6 30.5 18.7 49 7.7 ENE 17 30 9 16 1014.1 - 0.0
23/09:00am 31.1 30.8 19.1 48 7.9 E 19 28 10 15 1014.2 1013.2 0.0
23/08:30am 28.8 28.4 18.9 55 6.4 E 19 24 10 13 1014.2 - 0.0
23/08:00am 27.5 28.4 19.3 61 5.3 ENE 13 20 7 11 1014.1 - 0.0
23/07:30am 26.4 30.1 20.0 68 4.2 CALM 0 6 0 3 1014.0 - 0.0
23/07:00am 24.1 28.1 20.6 81 2.3 CALM 0 0 0 0 1014.0 - 0.0
23/06:30am 22.9 25.6 20.6 87 1.5 SSE 7 9 4 5 1013.7 - 0.0
23/06:00am 21.3 23.8 19.8 91 1.0 SSE 6 9 3 5 1013.1 1012.2 0.0
23/05:30am 20.8 24.0 18.9 89 1.2 CALM 0 0 0 0 1012.6 - 0.0
23/05:00am 21.0 24.2 18.9 88 1.3 CALM 0 0 0 0 1012.3 - 0.0
23/04:30am 21.5 24.9 19.4 88 1.3 CALM 0 6 0 3 1012.2 - 0.0
23/04:00am 21.3 24.2 19.0 87 1.5 E 2 7 1 4 1011.7 - 0.0
23/03:30am 22.1 25.6 19.5 85 1.7 CALM 0 0 0 0 1011.8 - 0.0
23/03:00am 22.2 25.8 19.7 86 1.6 CALM 0 0 0 0 1012.2 1011.2 0.0
23/02:30am 22.5 26.0 19.5 83 1.9 CALM 0 6 0 3 1012.1 - 0.0
23/02:00am 23.0 25.6 20.0 83 1.9 S 6 6 3 3 1012.1 - 0.0
23/01:30am 23.2 25.6 20.0 82 2.1 S 7 11 4 6 1012.2 - 0.0
23/01:00am 23.5 25.6 20.2 82 2.1 SSW 9 11 5 6 1012.3 - 0.0
23/12:30am 24.1 27.2 20.2 79 2.5 W 4 7 2 4 1012.5 - 0.0
23/12:00am 24.5 27.7 20.4 78 2.7 ENE 4 13 2 7 1012.4 1011.5 0.0
 
Date/Time
EST
Temp
°C
App
Temp
°C
Dew
Point
Rel
Hum
%
Delta-T
°C
Wind Press
QNH
hPa
Press
MSL
hPa
Rain
since 9 am
mm
Dir
 
Spd
km/h
Gust
km/h
Spd
kts
Gust
kts
22/11:30pm 24.7 26.6 20.6 78 2.7 NNE 11 17 6 9 1012.3 - 0.0
22/11:00pm 24.8 26.7 20.5 77 2.8 NE 11 15 6 8 1012.5 - 0.0
22/10:30pm 24.7 26.6 20.6 78 2.7 N 11 15 6 8 1012.5 - 0.0
22/10:00pm 25.0 26.6 20.7 77 2.8 NNE 13 19 7 10 1012.4 - 0.0
22/09:30pm 25.1 26.4 20.8 77 2.8 NNE 15 22 8 12 1012.1 - 0.0
22/09:00pm 25.1 26.3 20.6 76 3.0 NNE 15 20 8 11 1012.1 1011.1 0.0
22/08:30pm 25.5 25.8 20.3 73 3.4 NE 19 26 10 14 1012.1 - 0.0
22/08:00pm 26.0 25.7 19.6 68 4.2 NE 20 30 11 16 1011.7 - 0.0
22/07:30pm 26.7 26.8 19.1 63 4.9 NE 17 28 9 15 1011.3 - 0.0
22/07:00pm 27.8 27.7 17.9 54 6.3 NE 15 28 8 15 1011.1 - 0.0
22/06:30pm 29.1 27.7 15.6 44 8.4 NE 17 26 9 14 1010.5 - 0.0
22/06:00pm 30.6 29.0 15.1 39 9.6 NE 17 24 9 13 1010.2 1009.2 0.0
22/05:30pm 32.2 30.6 13.9 33 11.2 NE 15 24 8 13 1010.1 - 0.0
22/05:00pm 32.6 30.3 14.2 32 11.3 NE 19 28 10 15 1009.8 - 0.0
22/04:30pm 32.9 30.9 15.4 35 10.9 NE 20 35 11 19 1009.7 - 0.0
22/04:00pm 33.4 30.6 15.4 34 11.3 NE 24 33 13 18 1009.6 - 0.0
22/03:30pm 34.1 31.9 16.0 34 11.5 NE 22 32 12 17 1009.6 - 0.0
22/03:00pm 34.5 32.1 15.4 32 12.0 NNE 22 32 12 17 1009.7 1008.7 0.0
22/02:30pm 34.0 31.4 15.0 32 11.9 NNE 22 32 12 17 1010.1 - 0.0
22/02:00pm 35.7 33.3 15.4 29 12.8 NE 22 33 12 18 1010.3 - 0.0
22/01:30pm 34.5 31.4 14.4 30 12.5 NNE 24 35 13 19 1010.6 - 0.0
22/01:00pm 34.9 32.6 15.7 31 12.1 NE 22 33 12 18 1011.2 - 0.0
22/12:30pm 34.0 31.2 15.4 32 11.7 NE 24 35 13 19 1011.5 - 0.0
22/12:00pm 33.9 31.8 16.3 35 11.2 NE 22 33 12 18 1011.8 1010.8 0.0
22/11:30am 33.0 31.5 16.4 37 10.5 NNE 19 32 10 17 1012.3 - 0.0
22/11:00am 32.9 32.5 17.1 39 10.1 NE 15 33 8 18 1012.3 - 0.0
22/10:30am 31.9 30.7 17.0 41 9.5 ENE 19 28 10 15 1012.7 - 0.0
22/10:00am 32.2 32.0 18.4 44 9.0 E 17 39 9 21 1012.9 - 0.0
22/09:30am 29.8 30.7 18.3 50 7.4 S 11 24 6 13 1013.2 - 0.0
22/09:00am 29.0 30.3 18.4 52 6.8 SE 9 19 5 10 1013.5 1012.5 0.0
22/08:30am 27.8 29.8 19.1 59 5.6 N 7 11 4 6 1013.7 - 0.0
22/08:00am 26.2 28.2 19.1 65 4.6 SW 7 11 4 6 1013.5 - 0.0
22/07:30am 24.9 27.5 19.3 71 3.6 SSE 4 7 2 4 1013.4 - 0.0
22/07:00am 22.1 24.2 18.9 82 2.0 S 6 9 3 5 1013.6 - 0.0
22/06:30am 20.1 22.8 18.6 91 0.9 S 2 7 1 4 1013.4 - 0.0
22/06:00am 19.0 21.2 17.5 91 0.9 SSE 2 4 1 2 1013.0 1012.1 0.0
22/05:30am 18.8 20.5 17.1 90 1.0 SSE 4 7 2 4 1012.5 - 0.0
22/05:00am 19.2 21.5 17.7 91 0.9 ESE 2 7 1 4 1012.0 - 0.0
22/04:30am 19.8 22.2 17.9 89 1.2 SW 2 7 1 4 1011.9 - 0.0
22/04:00am 19.6 22.1 17.2 86 1.5 CALM 0 0 0 0 1011.4 - 0.0
22/03:30am 20.4 22.2 17.4 83 1.8 SW 4 7 2 4 1011.4 - 0.0
22/03:00am 20.4 23.0 17.6 84 1.7 CALM 0 6 0 3 1011.1 1010.2 0.0
22/02:30am 21.7 23.0 17.1 75 2.8 S 6 17 3 9 1010.8 - 0.0
22/02:00am 23.8 25.4 19.1 75 3.0 ENE 9 13 5 7 1010.8 - 0.0
22/01:30am 24.1 26.2 19.0 73 3.3 NE 6 11 3 6 1011.4 - 0.0
22/01:00am 24.3 24.9 18.7 71 3.6 ENE 13 24 7 13 1011.5 - 0.0
22/12:30am 23.8 25.1 19.3 76 2.9 NNE 11 17 6 9 1011.8 - 0.0
22/12:00am 23.9 26.0 19.4 76 2.9 NNE 7 19 4 10 1011.9 1010.9 0.0
 
Date/Time
EST
Temp
°C
App
Temp
°C
Dew
Point
Rel
Hum
%
Delta-T
°C
Wind Press
QNH
hPa
Press
MSL
hPa
Rain
since 9 am
mm
Dir
 
Spd
km/h
Gust
km/h
Spd
kts
Gust
kts
21/11:30pm 24.5 25.2 19.6 74 3.2 NE 15 20 8 11 1012.1 - 0.0
21/11:00pm 24.6 24.6 19.7 74 3.2 NE 19 26 10 14 1012.4 - 0.0
21/10:30pm 24.5 25.4 20.0 76 2.9 NE 15 24 8 13 1012.4 - 0.0
21/10:00pm 25.0 25.8 19.8 73 3.4 ENE 15 20 8 11 1012.3 - 0.0
21/09:30pm 25.0 25.9 20.0 74 3.3 NE 15 22 8 12 1012.5 - 0.0
21/09:00pm 25.1 25.3 20.1 74 3.3 NE 19 30 10 16 1012.2 1011.2 0.0
21/08:30pm 25.2 25.0 19.8 72 3.5 NNE 20 30 11 16 1011.9 - 0.0
21/08:00pm 25.5 25.4 19.9 71 3.7 NNE 20 30 11 16 1011.6 - 0.0
21/07:30pm 25.8 25.6 19.7 69 4.0 NNE 20 28 11 15 1011.4 - 0.0
21/07:00pm 26.6 26.3 19.2 64 4.8 NNE 19 22 10 12 1011.0 - 0.0
21/06:30pm 27.8 27.5 18.2 56 6.1 NE 17 24 9 13 1010.8 - 0.0
21/06:00pm 29.6 28.1 16.4 45 8.3 NE 19 28 10 15 1010.7 1009.7 0.0
21/05:30pm 31.3 29.0 14.0 35 10.5 NE 19 28 10 15 1010.1 - 0.0
21/05:00pm 32.4 29.8 13.1 31 11.6 NE 19 30 10 16 1009.9 - 0.0
21/04:30pm 32.3 28.7 12.0 29 12.0 NE 22 35 12 19 1009.7 - 0.0
21/04:00pm 32.8 30.2 14.9 34 11.1 NE 22 32 12 17 1009.6 - 0.0
21/03:30pm 33.9 31.1 14.4 31 12.1 NE 22 37 12 20 1009.8 - 0.0
21/03:00pm 33.4 29.9 13.5 30 12.1 NE 24 37 13 20 1010.0 1008.9 0.0
21/02:30pm 34.3 31.7 13.7 29 12.6 NE 20 33 11 18 1010.2 - 0.0
21/02:00pm 33.7 30.5 13.2 29 12.5 ENE 22 39 12 21 1010.8 - 0.0
21/01:30pm 33.1 30.8 14.7 33 11.4 ENE 20 35 11 19 1011.2 - 0.0
21/01:00pm 33.4 31.0 15.4 34 11.3 ENE 22 39 12 21 1011.6 - 0.0
21/12:30pm 32.8 30.2 14.9 34 11.1 ENE 22 35 12 19 1012.1 - 0.0
21/12:00pm 33.4 31.0 15.4 34 11.3 ENE 22 35 12 19 1012.5 1011.5 0.0
21/11:30am 32.6 30.3 15.6 36 10.7 NE 22 41 12 22 1013.0 - 0.0
21/11:00am 31.9 29.6 15.8 38 10.1 NE 22 35 12 19 1013.3 - 0.0
21/10:30am 32.2 30.8 16.5 39 10.0 E 19 35 10 19 1013.6 - 0.0
21/10:00am 31.9 30.7 17.0 41 9.5 E 19 28 10 15 1013.7 - 0.0
21/09:30am 30.7 29.5 17.4 45 8.5 NE 20 30 11 16 1013.8 - 0.0
21/09:00am 31.0 30.1 17.7 45 8.5 ENE 19 32 10 17 1013.8 1012.7 0.0
21/08:30am 29.5 29.1 18.0 50 7.4 E 17 28 9 15 1013.6 - 0.0
21/08:00am 29.2 29.6 18.9 53 6.7 E 15 22 8 12 1013.3 - 0.0
21/07:30am 27.7 28.0 18.7 58 5.8 ENE 15 26 8 14 1013.0 - 0.0
21/07:00am 26.6 28.6 20.0 67 4.3 ENE 9 13 5 7 1012.6 - 0.0
21/06:30am 24.2 27.9 20.7 81 2.3 SE 2 9 1 5 1012.4 - 0.0
21/06:00am 22.1 25.4 19.1 83 1.9 CALM 0 0 0 0 1012.0 1011.1 0.0
21/05:30am 22.9 26.4 19.5 81 2.2 CALM 0 6 0 3 1011.5 - 0.0
21/05:00am 24.1 26.9 20.4 80 2.4 NE 6 9 3 5 1011.3 - 0.0
21/04:30am 24.6 27.2 20.5 78 2.7 ENE 7 13 4 7 1011.1 - 0.0
21/04:00am 24.3 26.5 20.4 79 2.6 NE 9 17 5 9 1011.0 - 0.0
21/03:30am 24.8 27.1 20.7 78 2.7 NE 9 17 5 9 1010.6 - 0.0
21/03:00am 24.7 26.7 20.8 79 2.6 NNE 11 22 6 12 1010.7 1009.7 0.0
21/02:30am 25.1 26.6 21.2 79 2.6 NE 15 26 8 14 1010.6 - 0.0
21/02:00am 25.3 26.4 21.2 78 2.7 NE 17 28 9 15 1011.0 - 0.0
21/01:30am 25.3 25.9 21.0 77 2.8 NE 19 30 10 16 1011.4 - 0.0
21/01:00am 25.2 27.0 21.1 78 2.7 NE 13 24 7 13 1011.8 - 0.0
21/12:30am 25.3 27.2 21.4 79 2.6 NE 13 26 7 14 1012.2 - 0.0
21/12:00am 25.5 26.7 21.4 78 2.7 NE 17 32 9 17 1012.6 1011.5 0.0
 
Date/Time
EST
Temp
°C
App
Temp
°C
Dew
Point
Rel
Hum
%
Delta-T
°C
Wind Press
QNH
hPa
Press
MSL
hPa
Rain
since 9 am
mm
Dir
 
Spd
km/h
Gust
km/h
Spd
kts
Gust
kts
20/11:30pm 25.5 26.4 21.6 79 2.6 ENE 19 32 10 17 1012.8 - 0.0
20/11:00pm 25.8 26.7 21.5 77 2.9 ENE 19 28 10 15 1013.0 - 0.0
20/10:30pm 26.2 27.0 21.4 75 3.2 NE 19 35 10 19 1012.9 - 0.0
20/10:00pm 26.0 27.8 21.2 75 3.2 NE 13 22 7 12 1012.9 - 0.0
20/09:30pm 26.3 27.5 21.5 75 3.2 ENE 17 28 9 15 1012.8 - 0.0

Other Formats:

Comma delimited format used in spreadsheet applications
http://www.bom.gov.au/fwo/IDQ60801/IDQ60801.94183.axf

JavaScript Object Notation format (JSON) in row-major order
http://www.bom.gov.au/fwo/IDQ60801/IDQ60801.94183.json